Alexandria, Pennsylvania
Current Conditions -  °F | °C
As of 9:53 AM on Monday 24 Nov 2014 (Local Time) from KAOO Reporting Station
Few Clouds Few Clouds  
Wind Chill: 59°   Ceiling: Unl
Heat Index: 59°   Visibility: 10mi
Dew Point: 53°   Wind: 17mph
Humidity: 81%   Direction: 190°S
Pressure: 29.56"   Gusts: 25mph
Location:  40.56°N, 78.1°W
Report Text: KAOO 241453Z AUTO 19015G22KT 10SM FEW050 15/12 A2956 RMK AO2 SLP008 T01500117 51000
Loading
Personal Weather Stations






























Interactive Weather Map New forecast layout! Learn more

10-Day Weather Forecast

Advertisements
Track Severe Weather on mobile